Time;durP1;ratioP1;P1;durP2;ratioP2;P2;SDS_P1;SDS_P2;PMS_P1;PMS_P2;Temp;Humidity;BMP_temperature;BMP_pressure;BME280_temperature;BME280_humidity;BME280_pressure;Samples;Min_cycle;Max_cycle;Signal;HPM_P1;HPM_P2
2022/11/19 00:01:20;;;;;;;5.70;5.20;;;8.90;99.90;;;;;;5034876;28;20425;-70
2022/11/19 00:03:46;;;;;;;6.63;5.57;;;8.90;99.90;;;;;;5034158;28;20402;-75
2022/11/19 00:06:14;;;;;;;5.87;5.37;;;8.90;99.90;;;;;;5034559;28;21038;-70
2022/11/19 00:08:40;;;;;;;6.20;5.10;;;8.90;99.90;;;;;;5034360;28;20653;-69
2022/11/19 00:11:12;;;;;;;5.53;5.13;;;8.80;99.90;;;;;;5033750;28;20421;-70
2022/11/19 00:13:39;;;;;;;5.13;4.57;;;8.80;99.90;;;;;;5035035;28;20452;-70
2022/11/19 00:16:07;;;;;;;8.07;5.63;;;8.80;99.90;;;;;;5033676;28;20410;-70
2022/11/19 00:18:33;;;;;;;5.80;5.30;;;8.70;99.90;;;;;;5034273;28;20465;-70
2022/11/19 00:21:06;;;;;;;6.57;5.97;;;8.90;99.90;;;;;;5033588;28;20410;-70
2022/11/19 00:23:32;;;;;;;6.60;5.40;;;8.70;99.90;;;;;;5049181;28;20450;-69
2022/11/19 00:26:12;;;;;;;7.70;5.80;;;8.70;99.90;;;;;;5053441;28;20757;-69
2022/11/19 00:28:40;;;;;;;6.90;6.17;;;8.70;99.90;;;;;;5054139;28;20177;-69
2022/11/19 00:31:10;;;;;;;7.00;6.30;;;8.70;99.90;;;;;;5052568;28;20404;-70
2022/11/19 00:33:37;;;;;;;6.70;6.03;;;8.60;99.90;;;;;;5036065;28;20409;-70
2022/11/19 00:36:05;;;;;;;7.27;6.57;;;8.60;99.90;;;;;;5052839;28;20442;-69
2022/11/19 00:38:31;;;;;;;6.67;6.07;;;8.50;99.90;;;;;;5053877;28;20463;-69
2022/11/19 00:40:57;;;;;;;8.10;5.90;;;8.50;99.90;;;;;;5035390;28;20416;-70
2022/11/19 00:46:08;;;;;;;6.73;5.50;;;8.50;99.90;;;;;;5035015;28;20919;-71
2022/11/19 00:48:34;;;;;;;6.80;6.10;;;8.40;99.90;;;;;;5034555;28;20432;-69
2022/11/19 00:51:00;;;;;;;7.17;6.17;;;8.50;99.90;;;;;;5033050;28;20504;-70
2022/11/19 00:53:26;;;;;;;6.30;5.70;;;8.50;99.90;;;;;;5047912;28;20836;-69
2022/11/19 00:55:52;;;;;;;7.73;6.30;;;8.50;99.90;;;;;;5052382;28;20478;-69
2022/11/19 00:58:18;;;;;;;6.40;5.80;;;8.50;99.90;;;;;;5053804;28;20688;-69
2022/11/19 01:00:44;;;;;;;7.13;6.30;;;8.50;99.90;;;;;;5053530;28;20268;-69
2022/11/19 01:03:10;;;;;;;6.83;6.13;;;8.50;99.90;;;;;;5051875;28;20466;-69
2022/11/19 01:05:36;;;;;;;7.90;6.27;;;8.50;99.90;;;;;;5033271;28;20424;-69
2022/11/19 01:08:02;;;;;;;7.10;6.50;;;8.40;99.90;;;;;;5032212;28;20559;-70
2022/11/19 01:10:28;;;;;;;9.37;6.93;;;8.50;99.90;;;;;;5033124;28;20979;-69
2022/11/19 01:15:38;;;;;;;8.03;6.83;;;8.40;99.90;;;;;;5033307;28;20431;-69
2022/11/19 01:18:04;;;;;;;7.90;7.17;;;8.40;99.90;;;;;;5047026;28;20479;-69
2022/11/19 01:20:30;;;;;;;9.20;7.57;;;8.30;99.90;;;;;;5049231;28;20204;-69
2022/11/19 01:22:55;;;;;;;10.60;7.80;;;8.30;99.90;;;;;;5051490;28;20189;-69
2022/11/19 01:25:21;;;;;;;8.93;7.97;;;8.20;99.90;;;;;;5052972;28;20181;-69
2022/11/19 01:27:47;;;;;;;9.07;7.90;;;8.00;99.90;;;;;;5050960;28;20230;-69
2022/11/19 01:30:13;;;;;;;10.67;7.70;;;7.90;99.90;;;;;;5032293;28;20189;-69
2022/11/19 01:32:39;;;;;;;9.20;7.83;;;8.00;99.90;;;;;;5041142;28;20232;-69
2022/11/19 01:35:05;;;;;;;9.90;8.30;;;8.00;99.90;;;;;;5045666;28;20986;-69
2022/11/19 01:37:31;;;;;;;9.47;8.03;;;8.00;99.90;;;;;;5048733;28;20181;-69
2022/11/19 01:39:57;;;;;;;8.93;7.53;;;8.00;99.90;;;;;;5050081;28;20487;-69
2022/11/19 01:45:32;;;;;;;10.80;8.80;;;8.00;99.90;;;;;;5051122;28;20261;-69
2022/11/19 01:48:17;;;;;;;10.13;8.30;;;8.00;99.90;;;;;;5051008;28;20449;-69
2022/11/19 01:51:07;;;;;;;10.93;8.40;;;8.00;99.90;;;;;;5035813;28;20428;-68
2022/11/19 01:53:35;;;;;;;10.20;8.17;;;8.00;99.90;;;;;;5051468;28;20442;-69
2022/11/19 01:56:03;;;;;;;13.10;8.50;;;7.90;99.90;;;;;;5050906;28;20428;-69
2022/11/19 01:58:37;;;;;;;8.73;7.83;;;7.80;99.90;;;;;;5051500;28;20478;-69
2022/11/19 02:01:04;;;;;;;10.00;8.10;;;7.90;99.90;;;;;;5050526;28;20483;-69
2022/11/19 02:03:31;;;;;;;10.00;9.00;;;7.80;99.90;;;;;;5051444;28;20781;-69
2022/11/19 02:05:59;;;;;;;10.87;8.77;;;7.90;99.90;;;;;;5050928;28;20984;-69
2022/11/19 02:08:33;;;;;;;10.47;8.83;;;7.90;99.90;;;;;;5044502;28;20467;-69
2022/11/19 02:11:15;;;;;;;10.77;9.07;;;7.90;99.90;;;;;;5041233;28;20432;-69
2022/11/19 02:13:46;;;;;;;10.97;9.13;;;7.90;99.90;;;;;;5032225;28;20892;-69
2022/11/19 02:16:31;;;;;;;12.57;10.90;;;7.90;99.90;;;;;;5030568;28;20882;-69
2022/11/19 02:19:26;;;;;;;11.53;9.80;;;7.90;99.90;;;;;;5046409;28;20474;-69
2022/11/19 02:22:15;;;;;;;11.00;9.90;;;7.90;99.90;;;;;;5052052;28;20408;-75
2022/11/19 02:25:28;;;;;;;12.50;10.90;;;7.90;99.90;;;;;;5041690;28;20511;-69
2022/11/19 02:28:12;;;;;;;11.50;10.30;;;7.90;99.90;;;;;;5051658;28;20453;-75
2022/11/19 02:30:42;;;;;;;11.60;9.97;;;7.90;99.90;;;;;;5032242;28;20408;-69
2022/11/19 02:33:15;;;;;;;13.43;11.23;;;7.90;99.90;;;;;;5031189;28;20393;-69
2022/11/19 02:35:47;;;;;;;13.57;11.13;;;7.90;99.90;;;;;;5032229;28;20496;-69
2022/11/19 02:38:39;;;;;;;12.63;11.13;;;7.90;99.90;;;;;;5031453;28;20658;-69
2022/11/19 02:41:35;;;;;;;13.37;11.03;;;7.80;99.90;;;;;;5041272;28;20538;-70
2022/11/19 02:47:11;;;;;;;15.70;12.80;;;7.90;99.90;;;;;;5050545;28;20435;-69
2022/11/19 02:49:42;;;;;;;14.37;11.63;;;7.80;99.90;;;;;;5051233;28;20445;-69
2022/11/19 02:52:08;;;;;;;14.90;11.53;;;7.90;99.90;;;;;;5050528;28;20427;-69
2022/11/19 02:54:34;;;;;;;15.70;12.97;;;7.80;99.90;;;;;;5051228;28;20903;-69
2022/11/19 02:57:01;;;;;;;15.20;11.70;;;7.80;99.90;;;;;;5050274;28;20541;-69
2022/11/19 03:05:18;;;;;;;16.43;12.80;;;7.90;99.90;;;;;;5050205;28;20481;-69
2022/11/19 03:07:44;;;;;;;14.97;12.60;;;7.90;99.90;;;;;;5049465;28;20471;-69
2022/11/19 03:10:10;;;;;;;18.47;13.77;;;7.90;99.90;;;;;;5050116;28;20450;-69
2022/11/19 03:16:40;;;;;;;13.30;11.87;;;7.90;99.90;;;;;;5051105;28;20190;-69
2022/11/19 03:18:42;;;;;;;14.33;12.30;;;7.90;99.90;;;;;;5051534;28;20479;-69
2022/11/19 03:21:18;;;;;;;13.47;12.07;;;7.90;99.90;;;;;;5049915;28;20429;-72
2022/11/19 03:23:55;;;;;;;16.40;12.77;;;7.90;99.90;;;;;;5050903;28;20439;-69
2022/11/19 03:26:26;;;;;;;13.97;12.33;;;7.90;99.90;;;;;;5050719;28;20933;-69
2022/11/19 03:28:54;;;;;;;14.90;11.43;;;7.90;99.90;;;;;;5041144;28;20423;-69
2022/11/19 03:31:22;;;;;;;13.57;11.33;;;7.90;99.90;;;;;;5049758;28;20416;-69
2022/11/19 03:33:51;;;;;;;15.10;12.70;;;8.00;99.90;;;;;;5046291;28;20406;-70
2022/11/19 03:36:21;;;;;;;13.43;12.00;;;7.90;99.90;;;;;;5035674;28;20431;-69
2022/11/19 03:38:56;;;;;;;13.23;11.30;;;7.90;99.90;;;;;;5036588;28;20843;-69
2022/11/19 03:41:24;;;;;;;14.53;11.50;;;8.00;99.90;;;;;;5053429;28;20441;-69
2022/11/19 03:43:54;;;;;;;17.80;12.80;;;7.80;99.90;;;;;;5046518;28;20817;-69
2022/11/19 03:46:22;;;;;;;14.77;12.83;;;8.00;99.90;;;;;;5053584;28;20420;-69
2022/11/19 03:48:51;;;;;;;15.40;11.93;;;7.80;99.90;;;;;;5054457;28;20450;-69
2022/11/19 03:51:24;;;;;;;16.63;12.27;;;7.80;99.90;;;;;;5053448;28;20450;-69
2022/11/19 03:53:50;;;;;;;15.53;12.50;;;7.90;99.90;;;;;;5054904;28;20411;-69
2022/11/19 03:56:22;;;;;;;13.90;12.33;;;7.80;99.90;;;;;;5053233;28;20545;-69
2022/11/19 03:58:48;;;;;;;14.37;11.47;;;7.80;99.90;;;;;;5053819;28;20216;-69
2022/11/19 04:01:14;;;;;;;14.53;11.80;;;7.70;99.90;;;;;;5052432;28;20451;-69
2022/11/19 04:03:39;;;;;;;15.43;13.23;;;7.80;99.90;;;;;;5054276;28;20655;-69
2022/11/19 04:06:05;;;;;;;14.37;12.27;;;7.80;99.90;;;;;;5053174;28;20444;-69
2022/11/19 04:08:31;;;;;;;13.67;12.03;;;7.60;99.90;;;;;;5034852;28;20777;-69
2022/11/19 04:10:58;;;;;;;13.50;11.67;;;7.60;99.90;;;;;;5053076;28;20439;-72
2022/11/19 04:13:26;;;;;;;15.63;12.87;;;7.70;99.90;;;;;;5053674;28;20608;-69
2022/11/19 04:15:52;;;;;;;18.77;13.10;;;7.70;99.90;;;;;;5053116;28;20456;-69
2022/11/19 04:18:18;;;;;;;17.33;13.47;;;7.60;99.90;;;;;;5053479;28;20199;-69
2022/11/19 04:20:44;;;;;;;19.03;13.03;;;7.60;99.90;;;;;;5053577;28;20181;-69
2022/11/19 04:23:10;;;;;;;18.03;14.80;;;7.60;99.90;;;;;;5053338;28;20290;-69
2022/11/19 04:25:36;;;;;;;18.40;13.27;;;7.60;99.90;;;;;;5054239;28;20430;-69
2022/11/19 04:28:02;;;;;;;14.37;12.63;;;7.60;99.90;;;;;;5052177;28;20186;-76
2022/11/19 04:30:28;;;;;;;16.57;14.63;;;7.40;99.90;;;;;;5053244;28;20431;-69
2022/11/19 04:32:54;;;;;;;17.53;14.60;;;7.40;99.90;;;;;;5053338;28;20188;-69
2022/11/19 04:35:20;;;;;;;19.43;14.80;;;7.40;99.90;;;;;;5040713;28;20900;-70
2022/11/19 04:37:47;;;;;;;18.40;13.90;;;7.40;99.90;;;;;;5047075;28;20184;-69
2022/11/19 04:40:13;;;;;;;18.53;13.60;;;7.40;99.90;;;;;;5051360;28;20522;-69
2022/11/19 04:42:39;;;;;;;19.17;14.60;;;7.40;99.90;;;;;;5053131;28;20433;-69
2022/11/19 04:45:05;;;;;;;19.83;14.83;;;7.40;99.90;;;;;;5051974;28;20788;-69
2022/11/19 04:47:31;;;;;;;19.23;16.10;;;7.30;99.90;;;;;;5052975;28;20800;-69
2022/11/19 04:49:57;;;;;;;17.47;14.03;;;7.30;99.90;;;;;;5053596;28;20422;-69
2022/11/19 04:52:22;;;;;;;20.33;14.67;;;7.30;99.90;;;;;;5052004;28;20203;-69
2022/11/19 04:54:48;;;;;;;18.00;13.60;;;7.50;99.90;;;;;;5053710;28;20175;-69
2022/11/19 04:57:14;;;;;;;18.40;14.77;;;7.50;99.90;;;;;;5052100;28;20207;-69
2022/11/19 04:59:39;;;;;;;16.73;13.53;;;7.40;99.90;;;;;;5051859;28;20208;-69
2022/11/19 05:02:05;;;;;;;17.50;13.70;;;7.40;99.90;;;;;;5051914;28;20197;-71
2022/11/19 05:04:31;;;;;;;18.70;13.60;;;7.40;99.90;;;;;;5034998;28;20211;-69
2022/11/19 05:06:56;;;;;;;18.67;14.00;;;7.40;99.90;;;;;;5034191;28;20231;-69
2022/11/19 05:09:22;;;;;;;19.07;15.00;;;7.30;99.90;;;;;;5051130;28;20270;-69
2022/11/19 05:11:48;;;;;;;16.63;13.60;;;7.40;99.90;;;;;;5052764;28;20210;-69
2022/11/19 05:14:13;;;;;;;17.77;14.03;;;7.30;99.90;;;;;;5052851;28;20254;-69
2022/11/19 05:16:39;;;;;;;18.90;14.77;;;7.40;99.90;;;;;;5050906;28;20191;-71
2022/11/19 05:19:05;;;;;;;18.70;14.70;;;7.30;99.90;;;;;;5052496;28;20234;-75
2022/11/19 05:21:30;;;;;;;22.30;14.50;;;7.30;99.90;;;;;;5052009;28;20192;-69
2022/11/19 05:23:56;;;;;;;16.00;13.40;;;7.30;99.90;;;;;;5036655;28;20184;-69
2022/11/19 05:26:22;;;;;;;17.70;13.17;;;7.30;99.90;;;;;;5051612;28;20412;-69
2022/11/19 05:28:47;;;;;;;19.60;14.30;;;7.30;99.90;;;;;;5053047;28;20183;-69
2022/11/19 05:31:13;;;;;;;18.77;14.17;;;7.30;99.90;;;;;;5033043;28;20185;-69
2022/11/19 05:33:39;;;;;;;17.73;13.87;;;7.30;99.90;;;;;;5051491;28;20192;-68
2022/11/19 05:36:05;;;;;;;18.33;14.73;;;7.30;99.90;;;;;;5051077;28;20181;-75
2022/11/19 05:38:31;;;;;;;17.87;14.30;;;7.20;99.90;;;;;;5051681;28;20238;-69
2022/11/19 05:40:56;;;;;;;18.87;15.47;;;7.20;99.90;;;;;;5052250;28;20834;-69
2022/11/19 05:43:22;;;;;;;20.90;15.07;;;7.20;99.90;;;;;;5050545;28;20179;-69
2022/11/19 05:45:48;;;;;;;19.37;14.97;;;7.10;99.90;;;;;;5050831;28;20242;-69
2022/11/19 05:48:14;;;;;;;21.20;15.77;;;7.10;99.90;;;;;;5049998;28;20401;-69
2022/11/19 05:50:42;;;;;;;22.67;16.60;;;7.00;99.90;;;;;;5052248;28;20184;-69
2022/11/19 05:53:08;;;;;;;22.27;16.53;;;7.00;99.90;;;;;;5033406;28;20262;-71
2022/11/19 05:55:34;;;;;;;21.30;15.83;;;7.00;99.90;;;;;;5045569;28;20435;-69
2022/11/19 05:58:00;;;;;;;19.67;15.10;;;7.00;99.90;;;;;;5048392;28;20969;-69
2022/11/19 06:00:26;;;;;;;21.30;15.63;;;7.00;99.90;;;;;;5049108;28;20254;-69
2022/11/19 06:02:51;;;;;;;24.13;15.30;;;6.90;99.90;;;;;;5051639;28;20187;-69
2022/11/19 06:05:17;;;;;;;21.63;15.83;;;6.90;99.90;;;;;;5049540;28;20539;-69
2022/11/19 06:07:43;;;;;;;22.77;15.30;;;6.80;99.90;;;;;;5052220;28;20223;-69
2022/11/19 06:10:09;;;;;;;23.60;15.63;;;6.70;99.90;;;;;;5050110;28;20194;-69
2022/11/19 06:12:34;;;;;;;22.70;15.67;;;6.60;99.90;;;;;;5050354;28;20205;-69
2022/11/19 06:15:00;;;;;;;24.17;16.77;;;6.60;99.90;;;;;;5048951;28;20504;-73
2022/11/19 06:17:27;;;;;;;22.50;16.10;;;6.60;99.90;;;;;;5050579;28;20429;-68
2022/11/19 06:19:53;;;;;;;23.00;15.43;;;6.50;99.90;;;;;;5049243;28;20301;-69
2022/11/19 06:22:18;;;;;;;23.00;17.43;;;6.50;99.90;;;;;;5043943;28;20298;-69
2022/11/19 06:24:44;;;;;;;24.60;16.23;;;6.40;99.90;;;;;;5051869;28;20186;-69
2022/11/19 06:27:09;;;;;;;25.90;15.90;;;6.30;99.90;;;;;;5048173;28;20186;-73
2022/11/19 06:29:35;;;;;;;23.97;15.57;;;6.30;99.90;;;;;;5049854;28;20182;-69
2022/11/19 06:32:03;;;;;;;24.90;16.33;;;6.20;99.90;;;;;;5049958;28;20345;-69
2022/11/19 06:34:29;;;;;;;23.20;16.75;;;6.30;99.90;;;;;;5047153;28;20194;-69
2022/11/19 06:36:55;;;;;;;21.73;15.67;;;6.40;99.90;;;;;;5050591;28;20181;-69
2022/11/19 06:39:20;;;;;;;23.37;15.70;;;6.50;99.90;;;;;;5049613;28;20211;-69
2022/11/19 06:41:47;;;;;;;22.83;16.33;;;6.50;99.90;;;;;;5043759;28;20210;-68
2022/11/19 06:44:13;;;;;;;21.57;14.87;;;6.50;99.90;;;;;;5042214;28;20219;-69
2022/11/19 06:46:38;;;;;;;22.37;15.83;;;6.50;99.90;;;;;;5043664;28;20397;-72
2022/11/19 06:49:05;;;;;;;22.47;16.23;;;6.50;99.90;;;;;;5048591;28;20193;-69
2022/11/19 06:51:31;;;;;;;20.70;15.27;;;6.40;99.90;;;;;;5039757;28;20272;-69
2022/11/19 06:53:57;;;;;;;24.15;15.68;;;6.40;99.90;;;;;;5037141;28;20258;-70
2022/11/19 06:56:23;;;;;;;23.13;16.57;;;6.40;99.90;;;;;;5047836;28;20278;-68
2022/11/19 06:58:49;;;;;;;23.33;15.87;;;6.40;99.90;;;;;;5016876;28;20202;-68
2022/11/19 07:01:14;;;;;;;22.30;15.33;;;6.50;99.90;;;;;;5041587;28;20191;-69
2022/11/19 07:03:41;;;;;;;21.10;16.00;;;6.50;99.90;;;;;;5044435;28;20536;-68
2022/11/19 07:06:07;;;;;;;20.45;14.57;;;6.60;99.90;;;;;;5048273;28;20206;-68
2022/11/19 07:08:34;;;;;;;23.08;15.13;;;6.60;99.90;;;;;;5040356;28;20281;-68
2022/11/19 07:11:24;;;;;;;22.40;15.07;;;6.60;99.90;;;;;;5025674;28;20587;-68
2022/11/19 07:13:58;;;;;;;19.57;14.10;;;6.60;99.90;;;;;;5056326;28;20398;-68
2022/11/19 07:16:27;;;;;;;21.87;14.70;;;6.60;99.90;;;;;;5049312;28;20405;-69
2022/11/19 07:18:52;;;;;;;19.57;14.97;;;6.60;99.90;;;;;;5048340;28;20453;-68
2022/11/19 07:21:18;;;;;;;20.07;12.90;;;6.50;99.90;;;;;;5035211;28;20775;-69
2022/11/19 07:23:44;;;;;;;19.33;13.90;;;6.50;99.90;;;;;;5050686;28;20182;-69
2022/11/19 07:26:09;;;;;;;19.77;14.67;;;6.50;99.90;;;;;;5047199;28;20180;-68
2022/11/19 07:28:35;;;;;;;18.97;14.27;;;6.40;99.90;;;;;;5028197;28;20190;-71
2022/11/19 07:31:07;;;;;;;21.03;15.67;;;6.40;99.90;;;;;;5053499;28;20189;-69
2022/11/19 07:33:34;;;;;;;22.60;14.27;;;6.30;99.90;;;;;;5052413;28;20194;-70
2022/11/19 07:36:01;;;;;;;20.55;14.63;;;6.30;99.90;;;;;;5040096;28;20182;-69
2022/11/19 07:38:26;;;;;;;20.40;14.82;;;6.40;99.90;;;;;;5034822;28;20236;-70
2022/11/19 07:40:53;;;;;;;20.20;15.50;;;6.30;99.90;;;;;;5035538;28;20213;-71
2022/11/19 07:43:19;;;;;;;23.05;15.43;;;6.30;99.90;;;;;;5049771;28;20179;-69
2022/11/19 07:45:44;;;;;;;19.40;15.10;;;6.30;99.90;;;;;;5037531;28;20182;-70
2022/11/19 07:48:12;;;;;;;21.20;14.90;;;6.30;99.90;;;;;;5048850;28;20535;-69
2022/11/19 07:50:39;;;;;;;18.98;14.70;;;6.20;99.90;;;;;;5051756;28;20274;-69
2022/11/19 07:53:06;;;;;;;21.38;14.55;;;6.30;99.90;;;;;;5035268;28;20642;-70
2022/11/19 07:55:32;;;;;;;18.90;13.80;;;6.30;99.90;;;;;;5034649;28;20179;-68
2022/11/19 07:57:57;;;;;;;20.17;14.10;;;6.50;99.90;;;;;;5035200;28;20308;-71
2022/11/19 08:00:23;;;;;;;23.17;14.87;;;6.50;99.90;;;;;;5053752;28;20847;-69
2022/11/19 08:02:49;;;;;;;19.67;13.40;;;6.60;99.90;;;;;;5055060;28;20190;-69
2022/11/19 08:05:15;;;;;;;17.70;12.60;;;6.60;99.90;;;;;;5053488;28;20182;-69
2022/11/19 08:07:41;;;;;;;18.75;13.50;;;6.50;99.90;;;;;;5053625;28;20271;-69
2022/11/19 08:10:08;;;;;;;19.00;13.53;;;6.60;99.90;;;;;;5054165;28;20191;-69
2022/11/19 08:12:34;;;;;;;21.00;14.30;;;6.60;99.90;;;;;;5048553;28;21061;-70
2022/11/19 08:15:00;;;;;;;21.83;15.43;;;6.80;99.90;;;;;;5053089;28;20433;-70
2022/11/19 08:20:10;;;;;;;18.80;13.43;;;6.70;99.90;;;;;;5051419;28;20207;-70
2022/11/19 08:22:36;;;;;;;19.03;14.10;;;6.70;99.90;;;;;;5051797;28;20411;-70
2022/11/19 08:25:03;;;;;;;23.13;14.73;;;6.60;99.90;;;;;;5036350;28;20423;-70
2022/11/19 08:27:28;;;;;;;20.50;15.90;;;6.50;99.90;;;;;;5032783;28;20278;-75
2022/11/19 08:29:54;;;;;;;19.27;14.90;;;6.50;99.90;;;;;;5051296;28;21532;-70
2022/11/19 08:32:20;;;;;;;23.93;15.17;;;6.70;99.90;;;;;;5049357;28;20187;-70
2022/11/19 08:34:46;;;;;;;18.30;14.20;;;6.60;99.90;;;;;;5036074;28;20199;-70
2022/11/19 08:37:12;;;;;;;21.20;14.40;;;6.60;99.90;;;;;;5045754;28;20218;-77
2022/11/19 08:39:41;;;;;;;17.98;13.20;;;6.40;99.90;;;;;;5053839;28;20621;-70
2022/11/19 08:44:54;;;;;;;27.37;14.43;;;6.30;99.90;;;;;;5053544;28;20380;-70
2022/11/19 08:47:20;;;;;;;19.83;14.57;;;6.30;99.90;;;;;;5026793;28;20933;-70
2022/11/19 08:49:45;;;;;;;21.90;12.65;;;6.30;99.90;;;;;;5047013;28;20180;-70
2022/11/19 08:52:13;;;;;;;17.00;12.30;;;6.20;99.90;;;;;;5031761;28;20253;-71
2022/11/19 08:54:39;;;;;;;16.20;11.87;;;6.20;99.90;;;;;;5013571;28;20278;-70
2022/11/19 08:57:04;;;;;;;14.97;12.00;;;6.30;99.90;;;;;;5035761;28;20838;-70
2022/11/19 08:59:30;;;;;;;16.90;12.90;;;6.30;99.90;;;;;;5048278;28;20210;-70
2022/11/19 09:01:56;;;;;;;19.20;12.90;;;6.20;99.90;;;;;;5041950;28;20213;-70
2022/11/19 09:04:21;;;;;;;18.30;12.67;;;6.40;99.90;;;;;;5052373;28;20192;-75
2022/11/19 09:06:47;;;;;;;17.47;12.73;;;6.50;99.90;;;;;;5034004;28;20218;-70
2022/11/19 09:09:14;;;;;;;15.67;12.30;;;6.50;99.80;;;;;;5052817;28;20196;-78
2022/11/19 09:11:39;;;;;;;17.65;13.30;;;6.70;99.90;;;;;;5053044;28;20193;-70
2022/11/19 09:14:05;;;;;;;19.00;13.07;;;6.70;99.90;;;;;;5031742;28;20178;-70
2022/11/19 09:16:31;;;;;;;17.70;12.20;;;6.60;99.90;;;;;;5041720;28;20404;-70
2022/11/19 09:18:57;;;;;;;9.53;8.07;;;6.60;99.90;;;;;;5029124;28;20945;-74
2022/11/19 09:21:23;;;;;;;17.03;12.50;;;10.00;99.90;;;;;;5017896;28;20680;-73
2022/11/19 09:23:48;;;;;;;13.17;11.77;;;10.70;99.90;;;;;;5032551;28;20432;-73
2022/11/19 09:26:16;;;;;;;17.10;13.50;;;11.10;99.90;;;;;;5037494;28;20195;-78
2022/11/19 09:28:42;;;;;;;58.67;38.50;;;11.60;99.90;;;;;;5014026;28;20190;-72
2022/11/19 09:31:14;;;;;;;49.17;30.90;;;12.10;99.90;;;;;;4999173;28;20412;-73
2022/11/19 09:33:42;;;;;;;22.57;17.70;;;12.60;99.90;;;;;;5045398;28;20442;-72
2022/11/19 09:36:09;;;;;;;40.47;28.17;;;13.10;99.90;;;;;;5042897;28;20429;-73
2022/11/19 09:38:35;;;;;;;52.37;36.47;;;13.40;99.90;;;;;;5023514;28;20834;-73
2022/11/19 09:41:13;;;;;;;53.40;35.70;;;13.70;99.90;;;;;;5011256;28;20522;-72
2022/11/19 09:44:00;;;;;;;61.40;41.10;;;14.00;99.90;;;;;;5040873;28;20438;-72
2022/11/19 09:46:55;;;;;;;74.37;45.27;;;14.20;95.80;;;;;;5014660;28;20444;-72
2022/11/19 09:49:28;;;;;;;43.23;30.87;;;14.30;99.10;;;;;;5014812;28;20444;-72
2022/11/19 09:52:00;;;;;;;44.37;28.60;;;14.30;97.40;;;;;;5046439;28;20493;-72
2022/11/19 09:54:26;;;;;;;63.30;41.50;;;14.30;97.80;;;;;;5052522;28;20403;-72
2022/11/19 09:56:54;;;;;;;45.23;30.97;;;14.50;97.40;;;;;;5053012;28;20410;-72
2022/11/19 09:59:36;;;;;;;26.97;19.97;;;14.50;98.30;;;;;;5052031;28;20450;-73
2022/11/19 10:02:19;;;;;;;100.00;57.37;;;14.60;96.90;;;;;;5052996;28;20402;-73
2022/11/19 10:04:46;;;;;;;74.30;41.30;;;14.70;99.90;;;;;;5017637;28;20422;-73
2022/11/19 10:07:27;;;;;;;174.70;113.40;;;14.90;98.70;;;;;;5046486;28;20471;-69
2022/11/19 10:10:22;;;;;;;17.20;14.30;;;14.90;83.80;;;;;;5041347;28;20430;-69
2022/11/19 10:13:10;;;;;;;13.20;11.80;;;13.90;65.90;;;;;;5017152;28;20808;-69
2022/11/19 10:16:17;;;;;;;14.13;12.63;;;13.10;66.30;;;;;;5024204;28;20510;-69
2022/11/19 10:19:07;;;;;;;14.07;11.90;;;12.30;68.20;;;;;;5032664;28;20448;-69
2022/11/19 10:21:54;;;;;;;13.60;11.20;;;11.70;72.60;;;;;;5031817;28;20914;-69
2022/11/19 10:24:42;;;;;;;12.37;11.17;;;11.10;71.20;;;;;;5033458;28;20406;-69
2022/11/19 10:27:46;;;;;;;12.87;10.70;;;10.60;74.80;;;;;;5034584;28;20491;-69
2022/11/19 10:30:16;;;;;;;13.37;10.27;;;9.50;95.20;;;;;;5051556;28;20515;-68
2022/11/19 10:32:50;;;;;;;13.67;10.47;;;9.50;81.80;;;;;;5051533;28;20477;-67
2022/11/19 10:35:20;;;;;;;14.47;11.30;;;8.90;92.30;;;;;;5051457;28;20711;-68
2022/11/19 10:38:15;;;;;;;11.90;10.70;;;8.70;86.40;;;;;;5033942;28;20974;-68
2022/11/19 10:41:24;;;;;;;13.80;11.47;;;8.50;86.70;;;;;;5044553;28;20843;-68
2022/11/19 10:43:59;;;;;;;12.40;10.57;;;8.20;86.80;;;;;;5007188;28;20425;-68
2022/11/19 10:46:26;;;;;;;15.30;10.53;;;8.10;89.40;;;;;;5031876;28;20902;-70
2022/11/19 10:48:56;;;;;;;678.60;356.87;;;8.10;90.10;;;;;;5039370;28;20399;-70
2022/11/19 10:51:42;;;;;;;666.87;405.27;;;7.80;91.30;;;;;;5031836;28;20817;-70
2022/11/19 10:54:22;;;;;;;67.13;43.67;;;7.70;91.50;;;;;;5031801;28;20444;-69
2022/11/19 10:56:51;;;;;;;14.80;11.60;;;7.70;92.00;;;;;;5032552;28;20754;-69
2022/11/19 10:59:23;;;;;;;15.23;11.80;;;7.50;92.50;;;;;;5030740;28;20546;-69
2022/11/19 11:01:56;;;;;;;11.73;9.87;;;7.40;91.70;;;;;;5037586;28;20446;-69
2022/11/19 11:04:24;;;;;;;12.30;10.00;;;7.60;91.90;;;;;;5047189;28;20438;-70
2022/11/19 11:07:01;;;;;;;13.30;11.00;;;7.40;91.80;;;;;;5028841;28;20520;-70
2022/11/19 11:09:34;;;;;;;11.53;10.33;;;8.40;92.90;;;;;;5033275;28;20478;-69
2022/11/19 11:15:20;;;;;;;12.33;10.63;;;7.20;94.40;;;;;;5042450;28;20423;-69
2022/11/19 11:17:47;;;;;;;12.83;9.67;;;7.20;96.20;;;;;;5038229;28;20407;-71
2022/11/19 11:20:19;;;;;;;11.10;9.20;;;7.20;94.30;;;;;;5021998;28;20523;-69
2022/11/19 11:22:47;;;;;;;13.27;10.50;;;7.20;93.40;;;;;;4999976;28;20398;-69
2022/11/19 11:25:26;;;;;;;13.43;11.20;;;7.20;92.70;;;;;;5040555;28;20419;-69
2022/11/19 11:28:12;;;;;;;13.13;10.57;;;7.20;91.90;;;;;;5014523;28;20924;-69
2022/11/19 11:30:49;;;;;;;11.47;10.27;;;7.20;92.50;;;;;;5030719;28;20427;-69
2022/11/19 11:33:21;;;;;;;11.80;10.53;;;7.30;93.00;;;;;;5032505;28;20430;-69
2022/11/19 11:35:47;;;;;;;13.50;9.70;;;7.20;93.70;;;;;;5021856;28;20543;-70
2022/11/19 11:38:13;;;;;;;11.80;9.87;;;7.30;95.90;;;;;;5051411;28;20506;-70
2022/11/19 11:40:39;;;;;;;11.20;9.80;;;7.30;93.90;;;;;;5051208;28;20185;-69
2022/11/19 11:43:05;;;;;;;10.93;9.73;;;;;;;;;;5033810;28;20903;-69
2022/11/19 11:45:36;;;;;;;10.80;9.53;;;7.30;92.30;;;;;;5049786;28;20415;-69
2022/11/19 11:48:07;;;;;;;11.87;9.70;;;7.40;93.20;;;;;;5033593;28;20412;-69
2022/11/19 11:50:35;;;;;;;11.90;10.60;;;7.50;95.00;;;;;;5028653;28;20426;-68
2022/11/19 11:53:07;;;;;;;12.90;9.77;;;7.50;93.70;;;;;;5055135;28;20438;-69
2022/11/19 11:55:33;;;;;;;14.53;10.80;;;7.50;94.80;;;;;;5052341;28;20498;-69
2022/11/19 11:58:04;;;;;;;11.20;9.60;;;7.60;94.70;;;;;;5049973;28;20514;-69
2022/11/19 12:00:42;;;;;;;12.47;10.07;;;7.50;94.40;;;;;;5042452;28;20196;-69
2022/11/19 12:03:19;;;;;;;17.37;10.20;;;7.50;93.90;;;;;;5024392;28;21007;-69
2022/11/19 12:06:04;;;;;;;12.23;10.50;;;7.60;94.80;;;;;;5047111;28;20428;-69
2022/11/19 12:08:47;;;;;;;13.20;10.23;;;7.50;95.30;;;;;;5035725;28;20526;-71
2022/11/19 12:11:26;;;;;;;13.07;11.43;;;7.60;96.00;;;;;;5052182;28;20440;-69
2022/11/19 12:14:08;;;;;;;11.77;10.43;;;7.50;94.30;;;;;;5036392;28;20408;-69
2022/11/19 12:16:58;;;;;;;11.00;9.87;;;7.50;95.10;;;;;;5053860;28;20445;-69
2022/11/19 12:19:52;;;;;;;11.03;9.40;;;7.60;95.40;;;;;;5054000;28;21043;-71
2022/11/19 12:22:50;;;;;;;11.27;8.93;;;7.60;93.60;;;;;;5036570;28;20553;-69
2022/11/19 12:25:38;;;;;;;10.43;9.07;;;7.50;94.20;;;;;;5047125;28;20432;-69
2022/11/19 12:28:04;;;;;;;12.90;9.80;;;7.60;94.30;;;;;;5054482;28;20764;-69
2022/11/19 12:30:35;;;;;;;12.50;10.03;;;7.60;95.70;;;;;;5053947;28;20427;-69
2022/11/19 12:33:29;;;;;;;10.80;9.70;;;7.70;92.80;;;;;;5037044;28;20163;-69
2022/11/19 12:36:13;;;;;;;12.70;10.43;;;7.70;91.90;;;;;;5036421;28;20397;-69
2022/11/19 12:38:50;;;;;;;11.87;9.97;;;7.70;91.40;;;;;;5053428;28;20455;-69
2022/11/19 12:41:47;;;;;;;11.53;9.97;;;7.70;91.90;;;;;;5054548;28;20511;-69
2022/11/19 12:44:29;;;;;;;10.47;9.43;;;7.80;95.00;;;;;;5036449;28;20456;-69
2022/11/19 12:47:06;;;;;;;12.23;9.43;;;7.80;92.10;;;;;;5036258;28;20898;-69
2022/11/19 12:49:56;;;;;;;11.20;10.00;;;7.70;91.50;;;;;;5053476;28;20407;-69
2022/11/19 12:53:05;;;;;;;11.60;10.07;;;7.70;91.00;;;;;;5054561;28;20745;-69
2022/11/19 12:55:48;;;;;;;10.47;9.47;;;7.60;91.10;;;;;;5053534;28;20381;-69
2022/11/19 12:58:47;;;;;;;11.03;9.60;;;7.60;91.10;;;;;;5019315;28;20459;-69
2022/11/19 13:01:25;;;;;;;11.30;9.70;;;7.60;91.30;;;;;;5053948;28;20412;-69
2022/11/19 13:04:00;;;;;;;11.83;10.60;;;7.50;91.40;;;;;;5035588;28;20495;-69
2022/11/19 13:06:36;;;;;;;11.73;9.70;;;7.50;91.70;;;;;;5035834;28;20465;-69
2022/11/19 13:09:14;;;;;;;11.47;9.80;;;7.50;91.40;;;;;;5052939;28;20962;-69
2022/11/19 13:11:48;;;;;;;10.93;9.77;;;7.50;94.10;;;;;;5051676;28;20454;-69
2022/11/19 13:14:46;;;;;;;11.70;9.67;;;7.70;94.70;;;;;;5035956;28;20465;-69
2022/11/19 13:17:35;;;;;;;12.40;10.77;;;7.50;92.90;;;;;;5047393;28;20792;-69
2022/11/19 13:20:06;;;;;;;11.57;8.87;;;7.60;92.70;;;;;;5053724;28;20795;-69
2022/11/19 13:22:36;;;;;;;11.90;10.13;;;7.60;94.80;;;;;;5035166;28;20449;-70
2022/11/19 13:25:15;;;;;;;11.43;9.33;;;7.70;93.10;;;;;;5053840;28;20443;-69
2022/11/19 13:27:43;;;;;;;12.57;10.13;;;7.70;94.70;;;;;;5052210;28;20493;-69
2022/11/19 13:30:21;;;;;;;12.40;9.97;;;7.90;92.30;;;;;;5035202;28;20422;-69